Flight Track Log - Related Links

Times and Time Zones

All times are in EDT time to prevent confusion due to time zone crossing. See the DAL6197 flight status page for this flight to view local times or setup timezone preferences in your user account.

Time Position Orientation Groundspeed Altitude Reporting Facility
EDT Latitude Longitude Course Direction KTS MPH feet Rate Location/Type
Wed 11:14:33 AM 42.9500 -78.7167 65° Northeast 150 173 1,600  Level Buffalo TRACON
Wed 11:15:21 AM 42.9667 -78.6667 65° Northeast 188 216 2,900 1,941 Climbing Buffalo TRACON
Wed 11:16:15 AM 42.9458 -78.6147 119° Southeast 263 303 4,900 2,496 Climbing Cleveland Center
Wed 11:17:14 AM 42.8858 -78.5261 133° Southeast 277 319 7,600 2,622 Climbing Cleveland Center
Wed 11:18:14 AM 42.8653 -78.4275 106° East 298 343 10,100 2,628 Climbing Cleveland Center
Wed 11:19:15 AM 42.8608 -78.3058 93° East 304 350 12,900 2,150 Climbing Cleveland Center
Wed 11:20:14 AM 42.8542 -78.1758 94° East 322 371 14,400 1,613 Climbing Cleveland Center
Wed 11:21:14 AM 42.8467 -78.0203 94° East 363 418 16,100 1,686 Climbing Cleveland Center
Wed 11:22:15 AM 42.8408 -77.8650 93° East 396 456 17,800 1,700 Climbing Cleveland Center
Wed 11:23:14 AM 42.8328 -77.7011 94° East 414 476 19,500 1,714 Climbing Cleveland Center
Wed 11:24:14 AM 42.8303 -77.5200 91° East 422 486 21,200 1,650 Climbing Cleveland Center
Wed 11:25:14 AM 42.8275 -77.3472 91° East 434 499 22,800 1,471 Climbing Cleveland Center
Wed 11:26:49 AM 42.8233 -77.0664 91° East 455 524 25,000 1,269 Climbing Boston Center
Wed 11:27:50 AM 42.8222 -76.8850 90° East 472 543 26,100 947 Climbing Boston Center
Wed 11:29:02 AM 42.8208 -76.6981 91° East 478 550 27,100 857 Climbing Boston Center
Wed 11:30:03 AM 42.8083 -76.4678 94° East 498 573 28,000 443 Climbing Boston Center
Wed 11:31:04 AM 42.7522 -76.2831 112° Southeast 503 579 28,000  Level Boston Center
Wed 11:32:02 AM 42.7042 -76.1022 110° East 510 587 28,000  Level Boston Center
Wed 11:33:02 AM 42.6514 -75.9183 111° Southeast 510 587 28,000  Level Boston Center
Wed 11:34:03 AM 42.6008 -75.7319 110° East 516 594 28,000  Level Boston Center
Wed 11:35:03 AM 42.5517 -75.5517 110° East 522 601 28,000 -454 Level Boston Center
Wed 11:36:02 AM 42.5000 -75.3717 111° Southeast 516 594 27,100 -1,200 Descending Boston Center
Wed 11:37:03 AM 42.4542 -75.2119 111° Southeast 516 594 25,600 -1,488 Descending Boston Center
Wed 11:38:03 AM 42.3933 -75.0492 117° Southeast 500 575 24,100 -1,525 Descending Boston Center
Wed 11:39:01 AM 42.3344 -74.8864 116° Southeast 483 556 22,600 -1,513 Descending Boston Center
Wed 11:40:02 AM 42.2753 -74.7297 117° Southeast 469 540 21,100 -1,488 Descending Boston Center
Wed 11:41:02 AM 42.2197 -74.5736 116° Southeast 464 534 19,600 -1,488 Descending Boston Center
Wed 11:42:03 AM 42.1581 -74.4117 117° Southeast 452 520 18,100 -793 Descending Boston Center
Wed 11:43:03 AM 42.1103 -74.2817 116° Southeast 441 507 18,000 -46 Descending Boston Center
Wed 11:44:13 AM 42.0292 -74.1450 129° Southeast 431 496 18,000 -92 Level Boston Center
Wed 11:45:13 AM 41.9200 -74.0500 147° Southeast 425 489 17,800 -1,094 Descending Boston Center
Wed 11:47:14 AM 41.7283 -73.8811 147° Southeast 398 458 14,700 -1,549 Descending Boston Center
Wed 11:48:15 AM 41.6458 -73.8292 155° Southeast 359 413 13,100 -1,252 Descending Boston Center
Wed 11:49:57 AM 41.5000 -73.8667 191° South 283 326 11,300 -1,037 Descending New York TRACON
Wed 11:50:57 AM 41.4333 -73.8667 180° South 300 345 10,300 -1,000 Descending New York TRACON
Wed 11:52:03 AM 41.3333 -73.8000 153° Southeast 325 374 9,200 -950 Descending New York TRACON
Wed 11:52:57 AM 41.2833 -73.7333 135° Southeast 316 364 8,400 -1,000 Descending New York TRACON
Wed 11:53:57 AM 41.2167 -73.6833 151° Southeast 301 346 7,300 -1,300 Descending New York TRACON
Wed 11:54:57 AM 41.1333 -73.6167 149° Southeast 304 350 5,800 -1,400 Descending New York TRACON
Wed 11:55:57 AM 41.0667 -73.5833 159° South 293 337 4,500 -900 Descending New York TRACON
Wed 11:56:57 AM 40.9833 -73.5833 180° South 257 296 4,000 -248 Descending New York TRACON
Wed 11:57:58 AM 40.9167 -73.6000 191° South 273 314 4,000  Level New York TRACON
Wed 11:58:58 AM 40.8500 -73.6333 201° Southwest 274 315 4,000 50 Level New York TRACON
Wed 11:59:58 AM 40.8000 -73.7000 225° Southwest 267 307 4,100  Climbing New York TRACON
Wed 12:00:58 PM 40.7833 -73.8000 258° West 258 297 4,000 -48 Descending New York TRACON
Wed 12:02:03 PM 40.7833 -73.9000 270° West 260 299 4,000  Level New York TRACON
Wed 12:03:03 PM 40.7667 -73.9833 255° West 209 241 4,000 -450 Level New York TRACON
Wed 12:04:03 PM 40.7167 -74.0000 194° South 201 231 3,100 -550 Descending New York TRACON
Wed 12:05:03 PM 40.6833 -73.9833 159° South 201 231 2,900 -261 Descending New York TRACON
Wed 12:05:58 PM 40.7000 -73.9333 66° East 190 219 2,600 -522 Descending New York TRACON
Wed 12:06:58 PM 40.7333 -73.8833 49° Northeast 173 199 1,900 -700 Descending New York TRACON
Wed 12:07:58 PM 40.7500 -73.8333 66° East 134 154 1,200 -700 Descending New York TRACON

Login

Don't have an account? Register now (free) for customized features, flight alerts, and more!